createdAt,value
2019-03-11T00:01:46.047Z,77.70
2019-03-11T00:04:14.569Z,74.80
2019-03-11T00:06:42.448Z,78.20
2019-03-11T00:09:09.843Z,74.80
2019-03-11T00:11:37.564Z,75.50
2019-03-11T00:14:04.951Z,74.90
2019-03-11T00:16:32.359Z,72.00
2019-03-11T00:18:59.942Z,69.30
2019-03-11T00:21:27.335Z,68.30
2019-03-11T00:23:54.723Z,66.10
2019-03-11T00:26:22.139Z,68.30
2019-03-11T00:28:49.539Z,69.00
2019-03-11T00:31:16.980Z,69.00
2019-03-11T00:33:44.388Z,70.70
2019-03-11T00:36:11.791Z,68.30
2019-03-11T00:38:39.182Z,65.80
2019-03-11T00:41:06.635Z,60.90
2019-03-11T00:43:34.331Z,58.40
2019-03-11T00:46:01.731Z,60.90
2019-03-11T00:48:29.187Z,64.00
2019-03-11T00:50:56.569Z,60.60
2019-03-11T00:53:23.956Z,62.90
2019-03-11T00:55:51.584Z,58.70
2019-03-11T00:58:21.152Z,59.30
2019-03-11T01:00:48.635Z,57.90
2019-03-11T01:03:16.107Z,55.90
2019-03-11T01:05:43.511Z,55.70
2019-03-11T01:08:10.907Z,54.10
2019-03-11T01:10:38.392Z,54.20
2019-03-11T01:13:05.927Z,54.50
2019-03-11T01:15:33.316Z,52.60
2019-03-11T01:18:00.820Z,52.40
2019-03-11T01:20:28.208Z,51.60
2019-03-11T01:22:55.612Z,54.70
2019-03-11T01:25:23.268Z,52.30
2019-03-11T01:27:50.735Z,51.90
2019-03-11T01:30:18.220Z,51.00
2019-03-11T01:32:46.786Z,51.20
2019-03-11T01:35:14.167Z,53.90
2019-03-11T01:37:41.557Z,54.50
2019-03-11T01:40:10.891Z,51.90
2019-03-11T01:42:38.291Z,49.90
2019-03-11T01:45:07.172Z,47.10
2019-03-11T01:47:34.828Z,48.70
2019-03-11T01:50:02.722Z,48.70
2019-03-11T01:52:30.112Z,50.70
2019-03-11T01:54:57.639Z,51.80
2019-03-11T01:57:25.213Z,50.40
2019-03-11T01:59:52.799Z,51.70
2019-03-11T02:02:20.524Z,51.20
2019-03-11T02:04:47.919Z,50.40
2019-03-11T02:07:15.333Z,48.00
2019-03-11T02:09:42.908Z,49.00
2019-03-11T02:12:10.299Z,49.40
2019-03-11T02:14:37.695Z,47.70
2019-03-11T02:17:05.399Z,47.30
2019-03-11T02:19:32.796Z,47.20
2019-03-11T02:22:00.182Z,47.70
2019-03-11T02:24:27.658Z,47.40
2019-03-11T02:26:55.046Z,47.50
2019-03-11T02:29:22.453Z,44.40
2019-03-11T02:31:50.077Z,46.00
2019-03-11T02:34:17.484Z,46.70
2019-03-11T02:36:44.880Z,46.20
2019-03-11T02:39:12.679Z,47.30
2019-03-11T02:41:40.076Z,47.80
2019-03-11T02:44:07.490Z,45.90
2019-03-11T02:46:34.934Z,44.60
2019-03-11T02:49:02.358Z,45.50
2019-03-11T02:51:29.772Z,45.30
2019-03-11T02:53:57.757Z,46.20
2019-03-11T02:56:25.139Z,47.60
2019-03-11T02:58:52.915Z,48.70
2019-03-11T03:01:38.761Z,48.40
2019-03-11T03:04:10.965Z,48.50
2019-03-11T03:06:38.376Z,49.00
2019-03-11T03:09:12.593Z,50.10
2019-03-11T03:11:41.201Z,50.40
2019-03-11T03:14:08.609Z,50.80
2019-03-11T03:16:36.219Z,52.20
2019-03-11T03:19:03.605Z,52.90
2019-03-11T03:21:30.990Z,53.10
2019-03-11T03:23:58.396Z,53.70
2019-03-11T03:26:25.797Z,53.10
2019-03-11T03:28:53.203Z,53.30
2019-03-11T03:31:20.685Z,52.50
2019-03-11T03:33:48.117Z,52.50
2019-03-11T03:36:15.583Z,52.50
2019-03-11T03:38:43.180Z,52.20
2019-03-11T03:41:10.568Z,51.20
2019-03-11T03:43:37.981Z,51.30
2019-03-11T03:46:18.089Z,51.80
2019-03-11T03:48:34.652Z,51.50
2019-03-11T03:51:01.997Z,51.50
2019-03-11T03:53:29.506Z,50.10
2019-03-11T03:55:56.902Z,50.50
2019-03-11T03:58:24.527Z,51.40
2019-03-11T04:00:53.015Z,51.90
2019-03-11T04:03:20.455Z,52.50
2019-03-11T04:05:47.914Z,52.90
2019-03-11T04:08:15.341Z,53.20
2019-03-11T04:10:42.736Z,53.20
2019-03-11T04:13:10.149Z,53.50
2019-03-11T04:15:37.942Z,53.80
2019-03-11T04:18:08.390Z,53.70
2019-03-11T04:20:36.284Z,53.70
2019-03-11T04:23:03.821Z,54.30
2019-03-11T04:25:31.226Z,54.70
2019-03-11T04:28:18.215Z,55.00
2019-03-11T04:30:45.894Z,55.40
2019-03-11T04:33:13.292Z,56.00
2019-03-11T04:35:41.012Z,57.20
2019-03-11T04:38:08.404Z,57.70
2019-03-11T04:40:35.810Z,58.20
2019-03-11T04:43:03.262Z,59.20
2019-03-11T04:45:30.664Z,59.70
2019-03-11T04:47:58.054Z,59.30
2019-03-11T04:50:25.575Z,60.40
2019-03-11T04:52:52.966Z,59.20
2019-03-11T04:55:20.363Z,61.40
2019-03-11T04:57:50.391Z,63.10
2019-03-11T05:00:20.045Z,61.20
2019-03-11T05:02:47.638Z,61.70
2019-03-11T05:05:15.175Z,61.40
2019-03-11T05:07:42.571Z,61.40
2019-03-11T05:10:10.235Z,64.00
2019-03-11T05:12:38.059Z,63.70
2019-03-11T05:15:05.863Z,63.70
2019-03-11T05:17:33.272Z,62.80
2019-03-11T05:20:00.855Z,65.30
2019-03-11T05:22:28.255Z,65.90
2019-03-11T05:24:55.657Z,65.90
2019-03-11T05:27:23.139Z,64.80
2019-03-11T05:29:50.877Z,64.00
2019-03-11T05:32:18.641Z,64.50
2019-03-11T05:34:46.591Z,66.50
2019-03-11T05:37:13.991Z,65.10
2019-03-11T05:39:41.383Z,65.00
2019-03-11T05:42:08.842Z,66.10
2019-03-11T05:44:36.271Z,66.70
2019-03-11T05:47:03.659Z,66.40
2019-03-11T05:49:31.092Z,66.70
2019-03-11T05:51:58.489Z,67.70
2019-03-11T05:54:25.879Z,66.70
2019-03-11T05:56:53.340Z,67.40
2019-03-11T05:59:20.768Z,65.80
2019-03-11T06:01:48.180Z,67.40
2019-03-11T06:04:15.647Z,67.30
2019-03-11T06:06:43.063Z,68.20
2019-03-11T06:09:10.451Z,66.40
2019-03-11T06:11:37.924Z,67.10
2019-03-11T06:14:05.349Z,65.60
2019-03-11T06:16:32.727Z,67.40
2019-03-11T06:19:00.178Z,67.00
2019-03-11T06:21:50.409Z,66.40
2019-03-11T06:24:19.843Z,68.90
2019-03-11T06:26:47.247Z,66.00
2019-03-11T06:29:14.780Z,67.40
2019-03-11T06:31:42.651Z,66.90
2019-03-11T06:34:10.063Z,68.10
2019-03-11T06:36:37.461Z,67.90
2019-03-11T06:39:07.096Z,66.70
2019-03-11T06:41:34.471Z,66.20
2019-03-11T06:44:01.971Z,66.00
2019-03-11T06:46:29.764Z,65.70
2019-03-11T06:48:57.167Z,65.90
2019-03-11T06:51:24.583Z,65.10
2019-03-11T06:53:52.677Z,64.90
2019-03-11T06:56:20.059Z,64.80
2019-03-11T06:58:47.459Z,64.70
2019-03-11T07:01:14.896Z,64.30
2019-03-11T07:03:42.292Z,64.20
2019-03-11T07:06:09.695Z,63.50
2019-03-11T07:08:37.132Z,63.50
2019-03-11T07:11:04.535Z,62.80
2019-03-11T07:13:31.929Z,61.90
2019-03-11T07:15:59.371Z,62.00
2019-03-11T07:18:26.779Z,61.90
2019-03-11T07:20:54.195Z,61.70
2019-03-11T07:23:21.628Z,61.10
2019-03-11T07:25:49.083Z,61.80
2019-03-11T07:28:16.509Z,61.50
2019-03-11T07:30:43.957Z,61.30
2019-03-11T07:33:11.751Z,60.50
2019-03-11T07:35:39.259Z,60.10
2019-03-11T07:38:06.884Z,59.80
2019-03-11T07:40:34.372Z,59.80
2019-03-11T07:43:01.692Z,59.90
2019-03-11T07:45:29.591Z,58.50
2019-03-11T07:47:56.980Z,58.70
2019-03-11T07:50:24.387Z,59.10
2019-03-11T07:52:51.969Z,59.30
2019-03-11T07:55:21.295Z,57.80
2019-03-11T07:57:48.552Z,57.10
2019-03-11T08:00:16.474Z,57.30
2019-03-11T08:02:43.995Z,57.20
2019-03-11T08:05:11.580Z,57.60
2019-03-11T08:07:39.199Z,54.80
2019-03-11T08:10:08.239Z,55.50
2019-03-11T08:12:35.703Z,56.10
2019-03-11T08:15:04.340Z,57.40
2019-03-11T08:17:31.747Z,55.00
2019-03-11T08:19:59.143Z,52.90
2019-03-11T08:22:26.837Z,52.00
2019-03-11T08:24:55.899Z,54.10
2019-03-11T08:27:23.311Z,53.40
2019-03-11T08:29:51.519Z,52.80
2019-03-11T08:32:18.908Z,52.10
2019-03-11T08:34:46.310Z,53.50
2019-03-11T08:37:13.781Z,55.90
2019-03-11T08:39:41.172Z,57.90
2019-03-11T08:42:08.559Z,57.30
2019-03-11T08:44:36.148Z,55.10
2019-03-11T08:47:03.538Z,51.10
2019-03-11T08:49:30.939Z,48.70
2019-03-11T08:51:58.379Z,50.20
2019-03-11T08:54:25.798Z,49.50
2019-03-11T08:56:53.211Z,48.00
2019-03-11T08:59:20.643Z,45.80
2019-03-11T09:01:48.038Z,47.50
2019-03-11T09:04:15.438Z,47.30
2019-03-11T09:06:42.911Z,47.90
2019-03-11T09:09:12.129Z,48.10
2019-03-11T09:11:39.516Z,50.40
2019-03-11T09:14:06.942Z,61.80
2019-03-11T09:16:34.419Z,67.40
2019-03-11T09:19:01.823Z,99.90
2019-03-11T09:21:29.412Z,99.90
2019-03-11T09:23:56.855Z,79.70
2019-03-11T09:26:24.263Z,80.80
2019-03-11T09:28:52.210Z,99.90
2019-03-11T09:31:20.485Z,86.10
2019-03-11T09:33:47.884Z,99.90
2019-03-11T09:36:15.291Z,89.40
2019-03-11T09:38:42.764Z,99.90
2019-03-11T09:41:10.118Z,99.90
2019-03-11T09:43:37.525Z,99.90
2019-03-11T09:46:05.199Z,99.90
2019-03-11T09:48:32.587Z,99.90
2019-03-11T09:51:00.068Z,99.90
2019-03-11T09:53:27.716Z,99.90
2019-03-11T09:55:55.107Z,99.90
2019-03-11T09:58:22.646Z,99.90
2019-03-11T10:00:50.104Z,99.90
2019-03-11T10:03:17.535Z,99.90
2019-03-11T10:05:44.980Z,99.90
2019-03-11T10:08:12.559Z,99.90
2019-03-11T10:10:40.050Z,99.90
2019-03-11T10:13:07.437Z,99.90
2019-03-11T10:15:34.884Z,99.90
2019-03-11T10:18:02.440Z,99.90
2019-03-11T10:20:29.879Z,99.90
2019-03-11T10:22:57.428Z,99.90
2019-03-11T10:25:24.827Z,99.90
2019-03-11T10:27:52.231Z,99.90
2019-03-11T10:30:19.782Z,99.90
2019-03-11T10:32:47.483Z,99.90
2019-03-11T10:35:30.703Z,99.90
2019-03-11T10:37:45.425Z,99.90
2019-03-11T10:40:14.887Z,99.90
2019-03-11T10:42:42.283Z,99.90
2019-03-11T10:45:10.603Z,99.90
2019-03-11T10:47:38.073Z,99.90
2019-03-11T10:50:06.271Z,99.90
2019-03-11T10:52:33.795Z,99.90
2019-03-11T10:55:01.175Z,99.90
2019-03-11T10:57:28.580Z,99.90
2019-03-11T10:59:56.038Z,98.00
2019-03-11T11:02:23.485Z,99.90
2019-03-11T11:04:50.952Z,87.00
2019-03-11T11:07:18.388Z,88.00
2019-03-11T11:09:45.871Z,85.50
2019-03-11T11:12:13.316Z,78.80
2019-03-11T11:14:41.172Z,78.70
2019-03-11T11:17:08.580Z,85.20
2019-03-11T11:19:35.960Z,89.40
2019-03-11T11:22:03.395Z,93.30
2019-03-11T11:24:30.790Z,90.30
2019-03-11T11:26:58.197Z,87.30
2019-03-11T11:29:25.846Z,88.30
2019-03-11T11:31:53.419Z,70.50
2019-03-11T11:34:21.429Z,80.20
2019-03-11T11:36:49.048Z,87.60
2019-03-11T11:39:17.888Z,83.50
2019-03-11T11:41:45.255Z,79.40
2019-03-11T11:44:12.723Z,81.90
2019-03-11T11:46:40.123Z,85.90
2019-03-11T11:49:07.611Z,78.70
2019-03-11T11:51:35.204Z,81.60
2019-03-11T11:54:02.652Z,70.20
2019-03-11T11:56:29.991Z,73.30
2019-03-11T11:58:57.414Z,68.60
2019-03-11T12:01:24.803Z,68.20
2019-03-11T12:03:52.199Z,65.10
2019-03-11T12:06:19.612Z,70.20
2019-03-11T12:08:47.031Z,74.10
2019-03-11T12:11:14.412Z,81.20
2019-03-11T12:13:42.011Z,81.00
2019-03-11T12:16:09.416Z,83.60
2019-03-11T12:18:36.812Z,84.50
2019-03-11T12:21:04.402Z,84.00
2019-03-11T12:23:31.804Z,85.10
2019-03-11T12:25:59.199Z,85.60
2019-03-11T12:28:26.795Z,84.00
2019-03-11T12:30:54.568Z,82.80
2019-03-11T12:33:22.158Z,81.80
2019-03-11T12:35:49.783Z,99.90
2019-03-11T12:38:17.175Z,82.00
2019-03-11T12:40:44.571Z,81.00
2019-03-11T12:43:12.723Z,99.90
2019-03-11T12:45:40.120Z,99.90
2019-03-11T12:48:07.548Z,99.90
2019-03-11T12:50:35.279Z,76.40
2019-03-11T12:53:02.684Z,73.90
2019-03-11T12:55:30.171Z,78.70
2019-03-11T12:57:57.861Z,71.80
2019-03-11T13:00:25.348Z,69.70
2019-03-11T13:02:52.747Z,69.30
2019-03-11T13:05:20.406Z,72.20
2019-03-11T13:07:48.007Z,70.10
2019-03-11T13:10:16.846Z,71.80
2019-03-11T13:12:44.267Z,69.30
2019-03-11T13:15:12.603Z,69.00
2019-03-11T13:17:39.995Z,69.20
2019-03-11T13:20:13.429Z,69.60
2019-03-11T13:22:40.869Z,69.10
2019-03-11T13:25:08.305Z,71.10
2019-03-11T13:27:36.011Z,64.70
2019-03-11T13:30:04.413Z,67.40
2019-03-11T13:32:31.966Z,69.10
2019-03-11T13:34:59.656Z,99.90
2019-03-11T13:37:27.051Z,69.00
2019-03-11T13:39:54.436Z,65.50
2019-03-11T13:42:21.877Z,66.40
2019-03-11T13:44:49.379Z,99.90
2019-03-11T13:47:16.762Z,69.30
2019-03-11T13:49:46.033Z,70.00
2019-03-11T13:52:13.430Z,65.70
2019-03-11T13:54:40.829Z,68.20
2019-03-11T13:57:08.270Z,66.50
2019-03-11T13:59:35.656Z,65.80
2019-03-11T14:02:03.052Z,64.00
2019-03-11T14:04:30.567Z,58.70
2019-03-11T14:06:57.964Z,61.30
2019-03-11T14:09:25.382Z,62.20
2019-03-11T14:11:52.828Z,60.80
2019-03-11T14:14:20.235Z,61.60
2019-03-11T14:16:47.625Z,59.10
2019-03-11T14:19:15.080Z,59.50
2019-03-11T14:21:42.467Z,60.00
2019-03-11T14:24:09.888Z,61.60
2019-03-11T14:26:37.564Z,58.20
2019-03-11T14:29:04.947Z,51.30
2019-03-11T14:31:32.702Z,45.20
2019-03-11T14:34:00.431Z,45.80
2019-03-11T14:36:27.827Z,46.80
2019-03-11T14:38:55.233Z,42.60
2019-03-11T14:41:22.845Z,43.10
2019-03-11T14:43:50.238Z,40.60
2019-03-11T14:46:17.659Z,40.70
2019-03-11T14:48:45.236Z,41.40
2019-03-11T14:51:12.630Z,43.10
2019-03-11T14:53:40.035Z,44.80
2019-03-11T14:56:07.467Z,47.40
2019-03-11T14:58:34.875Z,47.50
2019-03-11T15:01:02.273Z,48.50
2019-03-11T15:03:29.910Z,43.70
2019-03-11T15:05:57.308Z,45.60
2019-03-11T15:08:24.723Z,46.70
2019-03-11T15:10:52.407Z,47.50
2019-03-11T15:13:19.790Z,47.70
2019-03-11T15:15:47.196Z,46.80
2019-03-11T15:18:14.630Z,47.40
2019-03-11T15:20:42.015Z,43.20
2019-03-11T15:23:20.037Z,42.60
2019-03-11T15:25:39.115Z,42.20
2019-03-11T15:28:06.517Z,42.60
2019-03-11T15:30:33.905Z,45.40
2019-03-11T15:33:01.502Z,43.20
2019-03-11T15:35:29.283Z,42.70
2019-03-11T15:37:56.686Z,39.10
2019-03-11T15:40:24.139Z,40.70
2019-03-11T15:42:51.545Z,42.70
2019-03-11T15:45:19.051Z,42.30
2019-03-11T15:47:46.621Z,39.20
2019-03-11T15:50:33.999Z,39.40
2019-03-11T15:53:01.415Z,38.80
2019-03-11T15:55:28.823Z,37.50
2019-03-11T15:57:56.599Z,38.20
2019-03-11T16:00:23.993Z,38.40
2019-03-11T16:02:51.488Z,38.20
2019-03-11T16:05:19.172Z,38.00
2019-03-11T16:07:46.866Z,37.30
2019-03-11T16:10:17.116Z,38.40
2019-03-11T16:12:43.655Z,39.50
2019-03-11T16:15:11.385Z,40.70
2019-03-11T16:17:38.782Z,38.70
2019-03-11T16:20:08.734Z,39.10
2019-03-11T16:22:36.206Z,39.90
2019-03-11T16:25:04.820Z,40.90
2019-03-11T16:27:32.579Z,40.50
2019-03-11T16:29:59.982Z,42.80
2019-03-11T16:32:27.380Z,44.10
2019-03-11T16:34:54.979Z,47.10
2019-03-11T16:37:22.366Z,48.90
2019-03-11T16:39:49.759Z,49.70
2019-03-11T16:42:17.192Z,49.50
2019-03-11T16:44:44.588Z,58.00
2019-03-11T16:47:11.971Z,62.10
2019-03-11T16:49:39.639Z,66.40
2019-03-11T16:52:07.523Z,65.30
2019-03-11T16:54:34.910Z,62.50
2019-03-11T16:57:02.542Z,61.00
2019-03-11T16:59:29.944Z,60.40
2019-03-11T17:01:57.342Z,60.70
2019-03-11T17:04:24.777Z,59.30
2019-03-11T17:06:52.186Z,59.80
2019-03-11T17:09:19.583Z,62.60
2019-03-11T17:11:47.323Z,65.80
2019-03-11T17:14:14.715Z,69.00
2019-03-11T17:16:43.902Z,67.10
2019-03-11T17:19:11.650Z,68.90
2019-03-11T17:21:40.756Z,64.80
2019-03-11T17:24:08.173Z,66.50
2019-03-11T17:26:35.678Z,65.10
2019-03-11T17:29:03.081Z,65.10
2019-03-11T17:31:30.475Z,67.00
2019-03-11T17:33:57.915Z,65.90
2019-03-11T17:36:25.307Z,64.50
2019-03-11T17:38:52.724Z,63.90
2019-03-11T17:41:20.654Z,63.80
2019-03-11T17:43:48.071Z,61.20
2019-03-11T17:46:15.459Z,57.50
2019-03-11T17:48:43.195Z,58.60
2019-03-11T17:51:11.340Z,61.90
2019-03-11T17:53:38.734Z,63.90
2019-03-11T17:56:06.340Z,64.90
2019-03-11T17:58:33.739Z,64.80
2019-03-11T18:01:01.123Z,65.10
2019-03-11T18:03:28.590Z,61.00
2019-03-11T18:05:57.176Z,63.20
2019-03-11T18:08:24.782Z,64.90
2019-03-11T18:10:52.461Z,66.00
2019-03-11T18:13:19.867Z,66.10
2019-03-11T18:15:47.259Z,64.90
2019-03-11T18:18:14.719Z,64.00
2019-03-11T18:20:42.131Z,60.00
2019-03-11T18:23:09.516Z,58.00
2019-03-11T18:25:36.939Z,57.50
2019-03-11T18:28:04.353Z,57.20
2019-03-11T18:30:31.929Z,56.80
2019-03-11T18:32:59.499Z,55.60
2019-03-11T18:35:26.905Z,55.40
2019-03-11T18:38:03.231Z,55.20
2019-03-11T18:40:23.762Z,54.40
2019-03-11T18:42:51.163Z,53.00
2019-03-11T18:45:18.537Z,52.60
2019-03-11T18:47:46.392Z,52.90
2019-03-11T18:50:14.253Z,52.00
2019-03-11T18:52:42.327Z,52.90
2019-03-11T18:55:10.282Z,52.00
2019-03-11T18:57:37.792Z,51.30
2019-03-11T19:00:07.165Z,51.50
2019-03-11T19:02:34.613Z,52.00
2019-03-11T19:05:21.578Z,51.70
2019-03-11T19:07:49.638Z,54.00
2019-03-11T19:10:17.082Z,55.90
2019-03-11T19:12:44.613Z,57.70
2019-03-11T19:15:13.984Z,58.90
2019-03-11T19:17:41.384Z,64.00
2019-03-11T19:20:10.799Z,64.90
2019-03-11T19:22:38.535Z,66.60
2019-03-11T19:25:06.183Z,67.40
2019-03-11T19:27:33.585Z,69.20
2019-03-11T19:30:01.368Z,69.30
2019-03-11T19:32:28.622Z,69.90
2019-03-11T19:34:56.039Z,67.40
2019-03-11T19:37:23.654Z,67.50
2019-03-11T19:39:51.022Z,66.10
2019-03-11T19:42:18.464Z,63.30
2019-03-11T19:44:47.446Z,62.90
2019-03-11T19:47:15.115Z,64.60
2019-03-11T19:49:44.373Z,63.60
2019-03-11T19:52:11.870Z,70.20
2019-03-11T19:54:39.324Z,99.90
2019-03-11T19:57:06.740Z,66.50
2019-03-11T19:59:34.250Z,65.40
2019-03-11T20:02:01.638Z,62.40
2019-03-11T20:04:29.020Z,61.40
2019-03-11T20:06:56.492Z,61.40
2019-03-11T20:09:24.094Z,60.40
2019-03-11T20:11:53.953Z,59.20
2019-03-11T20:14:20.815Z,57.50
2019-03-11T20:16:48.204Z,57.60
2019-03-11T20:19:15.581Z,57.20
2019-03-11T20:21:43.139Z,54.90
2019-03-11T20:24:10.597Z,55.60
2019-03-11T20:26:38.001Z,55.00
2019-03-11T20:29:06.209Z,54.90
2019-03-11T20:31:33.981Z,54.10
2019-03-11T20:34:01.824Z,53.80
2019-03-11T20:36:29.501Z,53.90
2019-03-11T20:38:56.870Z,54.10
2019-03-11T20:41:24.276Z,52.80
2019-03-11T20:43:51.886Z,52.70
2019-03-11T20:46:19.702Z,53.30
2019-03-11T20:48:47.088Z,54.30
2019-03-11T20:51:14.547Z,54.40
2019-03-11T20:53:42.023Z,54.20
2019-03-11T20:56:09.563Z,54.60
2019-03-11T20:58:37.270Z,54.30
2019-03-11T21:01:05.067Z,53.10
2019-03-11T21:03:32.577Z,53.40
2019-03-11T21:06:00.365Z,52.60
2019-03-11T21:08:28.172Z,52.90
2019-03-11T21:10:55.895Z,52.70
2019-03-11T21:13:23.665Z,52.50
2019-03-11T21:15:51.092Z,52.30
2019-03-11T21:18:18.473Z,53.40
2019-03-11T21:20:46.306Z,53.00
2019-03-11T21:23:13.879Z,52.50
2019-03-11T21:25:41.297Z,53.30
2019-03-11T21:28:08.675Z,52.80
2019-03-11T21:30:36.118Z,52.70
2019-03-11T21:33:03.848Z,52.60
2019-03-11T21:35:31.445Z,52.10
2019-03-11T21:37:58.936Z,52.30
2019-03-11T21:40:26.703Z,52.20
2019-03-11T21:42:54.334Z,51.80
2019-03-11T21:45:33.599Z,52.60
2019-03-11T21:47:51.390Z,51.80
2019-03-11T21:50:20.137Z,51.90
2019-03-11T21:52:47.705Z,52.60
2019-03-11T21:55:15.145Z,52.30
2019-03-11T21:57:42.698Z,52.30
2019-03-11T22:00:13.003Z,52.10
2019-03-11T22:02:40.350Z,52.20
2019-03-11T22:05:08.238Z,53.00
2019-03-11T22:07:35.919Z,50.90
2019-03-11T22:10:04.939Z,51.60
2019-03-11T22:12:32.555Z,51.80
2019-03-11T22:14:59.968Z,51.50
2019-03-11T22:17:27.371Z,50.30
2019-03-11T22:19:54.790Z,51.00
2019-03-11T22:22:22.198Z,50.40
2019-03-11T22:24:49.611Z,50.30
2019-03-11T22:27:17.012Z,51.40
2019-03-11T22:29:44.421Z,52.60
2019-03-11T22:32:11.810Z,54.30
2019-03-11T22:34:39.267Z,55.40
2019-03-11T22:37:06.663Z,55.80
2019-03-11T22:39:34.070Z,56.40
2019-03-11T22:42:01.634Z,57.30
2019-03-11T22:44:29.179Z,57.20
2019-03-11T22:46:56.590Z,56.60
2019-03-11T22:49:24.009Z,57.20
2019-03-11T22:51:51.424Z,59.20
2019-03-11T22:54:18.830Z,59.20
2019-03-11T22:56:46.483Z,60.00
2019-03-11T22:59:13.915Z,59.70
2019-03-11T23:01:41.809Z,59.30
2019-03-11T23:04:09.270Z,59.60
2019-03-11T23:06:36.868Z,99.90
2019-03-11T23:09:05.353Z,58.60
2019-03-11T23:11:32.814Z,57.30
2019-03-11T23:14:00.105Z,56.10
2019-03-11T23:16:27.501Z,57.00
2019-03-11T23:18:55.073Z,60.30
2019-03-11T23:21:22.568Z,55.70
2019-03-11T23:23:49.958Z,55.30
2019-03-11T23:26:17.398Z,55.20
2019-03-11T23:28:44.810Z,55.70
2019-03-11T23:31:12.214Z,56.00
2019-03-11T23:33:39.839Z,55.90
2019-03-11T23:36:07.577Z,57.00
2019-03-11T23:38:35.049Z,55.70
2019-03-11T23:41:02.603Z,55.40
2019-03-11T23:43:30.004Z,55.10
2019-03-11T23:45:57.464Z,55.90
2019-03-11T23:48:25.131Z,56.80
2019-03-11T23:50:54.468Z,56.20
2019-03-11T23:53:21.713Z,56.20
2019-03-11T23:55:49.039Z,56.60
2019-03-11T23:58:16.405Z,55.50
